sensor_id;sensor_type;location;lat;lon;timestamp;temperature;humidity
52513;DHT22;38422;53.172;6.974;2023-04-26T00:02:10;5.90;99.90
52513;DHT22;38422;53.172;6.974;2023-04-26T00:04:36;5.90;99.90
52513;DHT22;38422;53.172;6.974;2023-04-26T00:07:15;5.80;99.90
52513;DHT22;38422;53.172;6.974;2023-04-26T00:09:41;5.80;99.90
52513;DHT22;38422;53.172;6.974;2023-04-26T00:12:08;5.70;99.90
52513;DHT22;38422;53.172;6.974;2023-04-26T00:14:36;5.70;99.90
52513;DHT22;38422;53.172;6.974;2023-04-26T00:17:01;5.60;99.90
52513;DHT22;38422;53.172;6.974;2023-04-26T00:19:28;5.60;99.90
52513;DHT22;38422;53.172;6.974;2023-04-26T00:21:54;5.60;99.90
52513;DHT22;38422;53.172;6.974;2023-04-26T00:24:20;5.70;99.90
52513;DHT22;38422;53.172;6.974;2023-04-26T00:26:45;5.70;99.90
52513;DHT22;38422;53.172;6.974;2023-04-26T00:29:11;5.70;99.90
52513;DHT22;38422;53.172;6.974;2023-04-26T00:31:37;5.70;99.90
52513;DHT22;38422;53.172;6.974;2023-04-26T00:34:02;5.70;99.90
52513;DHT22;38422;53.172;6.974;2023-04-26T00:36:28;5.70;99.90
52513;DHT22;38422;53.172;6.974;2023-04-26T00:38:54;5.70;99.90
52513;DHT22;38422;53.172;6.974;2023-04-26T00:41:19;5.60;99.90
52513;DHT22;38422;53.172;6.974;2023-04-26T00:43:46;5.70;99.90
52513;DHT22;38422;53.172;6.974;2023-04-26T00:46:12;5.70;99.90
52513;DHT22;38422;53.172;6.974;2023-04-26T00:48:37;5.70;99.90
52513;DHT22;38422;53.172;6.974;2023-04-26T00:51:04;5.70;99.90
52513;DHT22;38422;53.172;6.974;2023-04-26T00:53:30;5.70;99.90
52513;DHT22;38422;53.172;6.974;2023-04-26T00:55:57;5.70;99.90
52513;DHT22;38422;53.172;6.974;2023-04-26T00:58:24;5.70;99.90
52513;DHT22;38422;53.172;6.974;2023-04-26T01:00:50;5.70;99.90
52513;DHT22;38422;53.172;6.974;2023-04-26T01:03:16;5.70;99.90
52513;DHT22;38422;53.172;6.974;2023-04-26T01:05:42;5.70;99.90
52513;DHT22;38422;53.172;6.974;2023-04-26T01:08:08;5.70;99.90
52513;DHT22;38422;53.172;6.974;2023-04-26T01:10:34;5.70;99.90
52513;DHT22;38422;53.172;6.974;2023-04-26T01:13:01;5.70;99.90
52513;DHT22;38422;53.172;6.974;2023-04-26T01:15:28;5.70;99.90
52513;DHT22;38422;53.172;6.974;2023-04-26T01:17:58;5.70;99.90
52513;DHT22;38422;53.172;6.974;2023-04-26T01:20:24;5.70;99.90
52513;DHT22;38422;53.172;6.974;2023-04-26T01:22:50;5.80;99.90
52513;DHT22;38422;53.172;6.974;2023-04-26T01:25:17;5.80;99.90
52513;DHT22;38422;53.172;6.974;2023-04-26T01:27:43;5.80;99.90
52513;DHT22;38422;53.172;6.974;2023-04-26T01:30:09;5.80;99.90
52513;DHT22;38422;53.172;6.974;2023-04-26T01:32:35;5.80;99.90
52513;DHT22;38422;53.172;6.974;2023-04-26T01:35:01;5.80;99.90
52513;DHT22;38422;53.172;6.974;2023-04-26T01:37:27;5.80;99.90
52513;DHT22;38422;53.172;6.974;2023-04-26T01:39:52;5.90;99.90
52513;DHT22;38422;53.172;6.974;2023-04-26T01:42:18;5.80;99.90
52513;DHT22;38422;53.172;6.974;2023-04-26T01:44:44;5.80;99.90
52513;DHT22;38422;53.172;6.974;2023-04-26T01:47:09;5.70;99.90
52513;DHT22;38422;53.172;6.974;2023-04-26T01:49:35;5.60;99.90
52513;DHT22;38422;53.172;6.974;2023-04-26T01:52:01;5.50;99.90
52513;DHT22;38422;53.172;6.974;2023-04-26T01:54:27;5.40;99.90
52513;DHT22;38422;53.172;6.974;2023-04-26T01:56:52;5.30;99.90
52513;DHT22;38422;53.172;6.974;2023-04-26T01:59:18;5.30;99.90
52513;DHT22;38422;53.172;6.974;2023-04-26T02:01:44;5.20;99.90
52513;DHT22;38422;53.172;6.974;2023-04-26T02:04:10;5.20;99.90
52513;DHT22;38422;53.172;6.974;2023-04-26T02:06:36;5.20;99.90
52513;DHT22;38422;53.172;6.974;2023-04-26T02:09:03;5.20;99.90
52513;DHT22;38422;53.172;6.974;2023-04-26T02:11:29;5.20;99.90
52513;DHT22;38422;53.172;6.974;2023-04-26T02:13:55;5.20;99.90
52513;DHT22;38422;53.172;6.974;2023-04-26T02:16:20;5.30;99.90
52513;DHT22;38422;53.172;6.974;2023-04-26T02:18:46;5.30;99.90
52513;DHT22;38422;53.172;6.974;2023-04-26T02:21:16;5.30;99.90
52513;DHT22;38422;53.172;6.974;2023-04-26T02:23:42;5.30;99.90
52513;DHT22;38422;53.172;6.974;2023-04-26T02:26:08;5.30;99.90
52513;DHT22;38422;53.172;6.974;2023-04-26T02:28:34;5.30;99.90
52513;DHT22;38422;53.172;6.974;2023-04-26T02:31:01;5.40;99.90
52513;DHT22;38422;53.172;6.974;2023-04-26T02:33:27;5.40;99.90
52513;DHT22;38422;53.172;6.974;2023-04-26T02:35:52;5.50;99.90
52513;DHT22;38422;53.172;6.974;2023-04-26T02:38:18;5.50;99.90
52513;DHT22;38422;53.172;6.974;2023-04-26T02:40:44;5.50;99.90
52513;DHT22;38422;53.172;6.974;2023-04-26T02:43:10;5.50;99.90
52513;DHT22;38422;53.172;6.974;2023-04-26T02:45:42;5.40;99.90
52513;DHT22;38422;53.172;6.974;2023-04-26T02:48:08;5.40;99.90
52513;DHT22;38422;53.172;6.974;2023-04-26T02:50:34;5.30;99.90
52513;DHT22;38422;53.172;6.974;2023-04-26T02:53:00;5.30;99.90
52513;DHT22;38422;53.172;6.974;2023-04-26T02:55:28;5.20;99.90
52513;DHT22;38422;53.172;6.974;2023-04-26T02:57:53;5.20;99.90
52513;DHT22;38422;53.172;6.974;2023-04-26T03:00:19;5.10;99.90
52513;DHT22;38422;53.172;6.974;2023-04-26T03:02:45;5.10;99.90
52513;DHT22;38422;53.172;6.974;2023-04-26T03:05:10;5.10;99.90
52513;DHT22;38422;53.172;6.974;2023-04-26T03:07:36;5.00;99.90
52513;DHT22;38422;53.172;6.974;2023-04-26T03:10:02;5.00;99.90
52513;DHT22;38422;53.172;6.974;2023-04-26T03:12:29;5.00;99.90
52513;DHT22;38422;53.172;6.974;2023-04-26T03:14:58;5.00;99.90
52513;DHT22;38422;53.172;6.974;2023-04-26T03:17:24;5.00;99.90
52513;DHT22;38422;53.172;6.974;2023-04-26T03:19:50;4.90;99.90
52513;DHT22;38422;53.172;6.974;2023-04-26T03:22:15;4.90;99.90
52513;DHT22;38422;53.172;6.974;2023-04-26T03:24:43;4.80;99.90
52513;DHT22;38422;53.172;6.974;2023-04-26T03:27:09;4.80;99.90
52513;DHT22;38422;53.172;6.974;2023-04-26T03:29:34;4.70;99.90
52513;DHT22;38422;53.172;6.974;2023-04-26T03:32:00;4.70;99.90
52513;DHT22;38422;53.172;6.974;2023-04-26T03:34:26;4.70;99.90
52513;DHT22;38422;53.172;6.974;2023-04-26T03:36:52;4.60;99.90
52513;DHT22;38422;53.172;6.974;2023-04-26T03:39:18;4.50;99.90
52513;DHT22;38422;53.172;6.974;2023-04-26T03:41:43;4.40;99.90
52513;DHT22;38422;53.172;6.974;2023-04-26T03:44:09;4.40;99.90
52513;DHT22;38422;53.172;6.974;2023-04-26T03:46:36;4.40;99.90
52513;DHT22;38422;53.172;6.974;2023-04-26T03:49:02;4.50;99.90
52513;DHT22;38422;53.172;6.974;2023-04-26T03:51:27;4.50;99.90
52513;DHT22;38422;53.172;6.974;2023-04-26T03:53:53;4.60;99.90
52513;DHT22;38422;53.172;6.974;2023-04-26T03:56:20;4.60;99.90
52513;DHT22;38422;53.172;6.974;2023-04-26T03:58:45;4.60;99.90
52513;DHT22;38422;53.172;6.974;2023-04-26T04:01:11;4.70;99.90
52513;DHT22;38422;53.172;6.974;2023-04-26T04:03:37;4.70;99.90
52513;DHT22;38422;53.172;6.974;2023-04-26T04:06:03;4.80;99.90
52513;DHT22;38422;53.172;6.974;2023-04-26T04:08:28;4.80;99.90
52513;DHT22;38422;53.172;6.974;2023-04-26T04:10:55;4.90;99.90
52513;DHT22;38422;53.172;6.974;2023-04-26T04:13:21;4.90;99.90
52513;DHT22;38422;53.172;6.974;2023-04-26T04:15:47;5.00;99.90
52513;DHT22;38422;53.172;6.974;2023-04-26T04:18:12;5.00;99.90
52513;DHT22;38422;53.172;6.974;2023-04-26T04:20:40;5.10;99.90
52513;DHT22;38422;53.172;6.974;2023-04-26T04:23:05;5.00;99.90
52513;DHT22;38422;53.172;6.974;2023-04-26T04:25:33;5.10;99.90
52513;DHT22;38422;53.172;6.974;2023-04-26T04:28:02;5.10;99.90
52513;DHT22;38422;53.172;6.974;2023-04-26T04:30:29;5.10;99.90
52513;DHT22;38422;53.172;6.974;2023-04-26T04:32:55;5.20;99.90
52513;DHT22;38422;53.172;6.974;2023-04-26T04:35:23;5.10;99.90
52513;DHT22;38422;53.172;6.974;2023-04-26T04:37:54;5.20;99.90
52513;DHT22;38422;53.172;6.974;2023-04-26T04:40:23;5.10;99.90
52513;DHT22;38422;53.172;6.974;2023-04-26T04:42:49;5.10;99.90
52513;DHT22;38422;53.172;6.974;2023-04-26T04:45:15;5.10;99.90
52513;DHT22;38422;53.172;6.974;2023-04-26T04:47:42;5.10;99.90
52513;DHT22;38422;53.172;6.974;2023-04-26T04:50:08;5.00;99.90
52513;DHT22;38422;53.172;6.974;2023-04-26T04:52:34;5.00;99.90
52513;DHT22;38422;53.172;6.974;2023-04-26T04:55:01;5.00;99.90
52513;DHT22;38422;53.172;6.974;2023-04-26T04:57:28;5.00;99.90
52513;DHT22;38422;53.172;6.974;2023-04-26T04:59:54;5.00;99.90
52513;DHT22;38422;53.172;6.974;2023-04-26T05:02:19;5.00;99.90
52513;DHT22;38422;53.172;6.974;2023-04-26T05:04:45;5.10;99.90
52513;DHT22;38422;53.172;6.974;2023-04-26T05:07:11;5.10;99.90
52513;DHT22;38422;53.172;6.974;2023-04-26T05:09:42;5.20;99.90
52513;DHT22;38422;53.172;6.974;2023-04-26T05:12:08;5.20;99.90
52513;DHT22;38422;53.172;6.974;2023-04-26T05:14:34;5.20;99.90
52513;DHT22;38422;53.172;6.974;2023-04-26T05:17:00;5.30;99.90
52513;DHT22;38422;53.172;6.974;2023-04-26T05:19:26;5.40;99.90
52513;DHT22;38422;53.172;6.974;2023-04-26T05:21:52;5.40;99.90
52513;DHT22;38422;53.172;6.974;2023-04-26T05:24:18;5.40;99.90
52513;DHT22;38422;53.172;6.974;2023-04-26T05:26:43;5.50;99.90
52513;DHT22;38422;53.172;6.974;2023-04-26T05:29:09;5.50;99.90
52513;DHT22;38422;53.172;6.974;2023-04-26T05:31:35;5.60;99.90
52513;DHT22;38422;53.172;6.974;2023-04-26T05:34:01;5.60;99.90
52513;DHT22;38422;53.172;6.974;2023-04-26T05:36:26;5.70;99.90
52513;DHT22;38422;53.172;6.974;2023-04-26T05:38:52;5.70;99.90
52513;DHT22;38422;53.172;6.974;2023-04-26T05:41:18;5.80;99.90
52513;DHT22;38422;53.172;6.974;2023-04-26T05:43:44;5.80;99.90
52513;DHT22;38422;53.172;6.974;2023-04-26T05:46:10;5.90;99.90
52513;DHT22;38422;53.172;6.974;2023-04-26T05:48:36;5.90;99.90
52513;DHT22;38422;53.172;6.974;2023-04-26T05:51:02;6.00;99.90
52513;DHT22;38422;53.172;6.974;2023-04-26T05:53:28;6.10;99.90
52513;DHT22;38422;53.172;6.974;2023-04-26T05:55:53;6.10;99.90
52513;DHT22;38422;53.172;6.974;2023-04-26T05:58:19;6.10;99.90
52513;DHT22;38422;53.172;6.974;2023-04-26T06:00:45;6.20;99.90
52513;DHT22;38422;53.172;6.974;2023-04-26T06:03:10;6.20;99.90
52513;DHT22;38422;53.172;6.974;2023-04-26T06:05:36;6.10;99.90
52513;DHT22;38422;53.172;6.974;2023-04-26T06:08:03;6.10;99.90
52513;DHT22;38422;53.172;6.974;2023-04-26T06:10:29;6.10;99.90
52513;DHT22;38422;53.172;6.974;2023-04-26T06:12:54;6.00;99.90
52513;DHT22;38422;53.172;6.974;2023-04-26T06:15:20;6.00;99.90
52513;DHT22;38422;53.172;6.974;2023-04-26T06:17:46;6.00;99.90
52513;DHT22;38422;53.172;6.974;2023-04-26T06:20:11;6.00;99.90
52513;DHT22;38422;53.172;6.974;2023-04-26T06:22:37;6.00;99.90
52513;DHT22;38422;53.172;6.974;2023-04-26T06:25:04;6.00;99.90
52513;DHT22;38422;53.172;6.974;2023-04-26T06:27:30;6.10;99.90
52513;DHT22;38422;53.172;6.974;2023-04-26T06:29:56;6.10;99.90
52513;DHT22;38422;53.172;6.974;2023-04-26T06:32:22;6.10;99.90
52513;DHT22;38422;53.172;6.974;2023-04-26T06:34:47;6.20;99.90
52513;DHT22;38422;53.172;6.974;2023-04-26T06:37:13;6.30;99.90
52513;DHT22;38422;53.172;6.974;2023-04-26T06:39:39;6.30;99.90
52513;DHT22;38422;53.172;6.974;2023-04-26T06:42:05;6.30;99.90
52513;DHT22;38422;53.172;6.974;2023-04-26T06:44:31;6.40;99.90
52513;DHT22;38422;53.172;6.974;2023-04-26T06:46:56;6.40;99.90
52513;DHT22;38422;53.172;6.974;2023-04-26T06:49:23;6.30;99.90
52513;DHT22;38422;53.172;6.974;2023-04-26T06:51:49;6.30;99.90
52513;DHT22;38422;53.172;6.974;2023-04-26T06:54:14;6.30;99.90
52513;DHT22;38422;53.172;6.974;2023-04-26T06:56:40;6.30;99.90
52513;DHT22;38422;53.172;6.974;2023-04-26T06:59:06;6.30;99.90
52513;DHT22;38422;53.172;6.974;2023-04-26T07:01:33;6.30;99.90
52513;DHT22;38422;53.172;6.974;2023-04-26T07:04:00;6.40;99.90
52513;DHT22;38422;53.172;6.974;2023-04-26T07:06:28;6.40;99.90
52513;DHT22;38422;53.172;6.974;2023-04-26T07:08:54;6.40;99.90
52513;DHT22;38422;53.172;6.974;2023-04-26T07:11:20;6.40;99.90
52513;DHT22;38422;53.172;6.974;2023-04-26T07:13:46;6.30;99.90
52513;DHT22;38422;53.172;6.974;2023-04-26T07:16:12;6.20;99.90
52513;DHT22;38422;53.172;6.974;2023-04-26T07:18:39;6.20;99.90
52513;DHT22;38422;53.172;6.974;2023-04-26T07:21:05;6.20;99.90
52513;DHT22;38422;53.172;6.974;2023-04-26T07:23:31;6.20;99.90
52513;DHT22;38422;53.172;6.974;2023-04-26T07:25:57;6.20;99.90
52513;DHT22;38422;53.172;6.974;2023-04-26T07:28:23;6.20;99.90
52513;DHT22;38422;53.172;6.974;2023-04-26T07:30:48;6.30;99.90
52513;DHT22;38422;53.172;6.974;2023-04-26T07:33:14;6.40;99.90
52513;DHT22;38422;53.172;6.974;2023-04-26T07:35:42;6.40;99.90
52513;DHT22;38422;53.172;6.974;2023-04-26T07:38:07;6.50;99.90
52513;DHT22;38422;53.172;6.974;2023-04-26T07:40:34;6.60;99.90
52513;DHT22;38422;53.172;6.974;2023-04-26T07:43:00;6.70;99.90
52513;DHT22;38422;53.172;6.974;2023-04-26T07:45:26;6.80;99.90
52513;DHT22;38422;53.172;6.974;2023-04-26T07:47:51;7.00;99.90
52513;DHT22;38422;53.172;6.974;2023-04-26T07:50:17;7.20;99.90
52513;DHT22;38422;53.172;6.974;2023-04-26T07:52:43;7.30;99.90
52513;DHT22;38422;53.172;6.974;2023-04-26T07:55:09;7.50;99.90
52513;DHT22;38422;53.172;6.974;2023-04-26T07:57:35;7.50;99.90
52513;DHT22;38422;53.172;6.974;2023-04-26T08:00:03;7.60;99.90
52513;DHT22;38422;53.172;6.974;2023-04-26T08:02:32;7.70;99.90
52513;DHT22;38422;53.172;6.974;2023-04-26T08:04:57;7.80;99.90
52513;DHT22;38422;53.172;6.974;2023-04-26T08:07:23;7.90;99.90
52513;DHT22;38422;53.172;6.974;2023-04-26T08:09:49;8.10;99.90
52513;DHT22;38422;53.172;6.974;2023-04-26T08:12:15;8.10;99.90
52513;DHT22;38422;53.172;6.974;2023-04-26T08:14:40;8.20;99.90
52513;DHT22;38422;53.172;6.974;2023-04-26T08:17:06;8.20;99.90
52513;DHT22;38422;53.172;6.974;2023-04-26T08:19:34;8.30;99.90
52513;DHT22;38422;53.172;6.974;2023-04-26T08:22:00;8.40;99.90
52513;DHT22;38422;53.172;6.974;2023-04-26T08:24:26;8.50;99.90
52513;DHT22;38422;53.172;6.974;2023-04-26T08:26:52;8.50;99.90
52513;DHT22;38422;53.172;6.974;2023-04-26T08:29:18;8.50;99.90
52513;DHT22;38422;53.172;6.974;2023-04-26T08:31:43;8.50;99.90
52513;DHT22;38422;53.172;6.974;2023-04-26T08:34:09;8.60;99.90
52513;DHT22;38422;53.172;6.974;2023-04-26T08:36:41;8.70;99.90
52513;DHT22;38422;53.172;6.974;2023-04-26T08:39:08;8.90;99.90
52513;DHT22;38422;53.172;6.974;2023-04-26T08:41:36;9.00;99.90
52513;DHT22;38422;53.172;6.974;2023-04-26T08:44:04;9.00;99.90
52513;DHT22;38422;53.172;6.974;2023-04-26T08:52:11;9.10;99.90
52513;DHT22;38422;53.172;6.974;2023-04-26T08:54:38;9.10;99.90
52513;DHT22;38422;53.172;6.974;2023-04-26T08:57:05;9.20;99.90
52513;DHT22;38422;53.172;6.974;2023-04-26T08:59:32;9.20;99.90
52513;DHT22;38422;53.172;6.974;2023-04-26T09:01:59;9.30;99.90
52513;DHT22;38422;53.172;6.974;2023-04-26T09:04:25;9.40;99.90
52513;DHT22;38422;53.172;6.974;2023-04-26T09:06:52;9.50;99.90
52513;DHT22;38422;53.172;6.974;2023-04-26T09:09:24;9.60;99.90
52513;DHT22;38422;53.172;6.974;2023-04-26T09:11:59;9.60;99.90
52513;DHT22;38422;53.172;6.974;2023-04-26T09:14:26;9.40;99.90
52513;DHT22;38422;53.172;6.974;2023-04-26T09:16:53;9.20;99.90
52513;DHT22;38422;53.172;6.974;2023-04-26T09:19:38;9.00;99.90
52513;DHT22;38422;53.172;6.974;2023-04-26T09:22:07;8.80;99.90
52513;DHT22;38422;53.172;6.974;2023-04-26T09:24:49;8.70;99.90
52513;DHT22;38422;53.172;6.974;2023-04-26T09:27:17;8.70;99.90
52513;DHT22;38422;53.172;6.974;2023-04-26T09:30:01;8.60;99.90
52513;DHT22;38422;53.172;6.974;2023-04-26T09:32:45;8.70;99.90
52513;DHT22;38422;53.172;6.974;2023-04-26T09:35:32;8.70;99.90
52513;DHT22;38422;53.172;6.974;2023-04-26T09:38:09;8.70;99.90
52513;DHT22;38422;53.172;6.974;2023-04-26T09:40:44;8.80;99.90
52513;DHT22;38422;53.172;6.974;2023-04-26T09:43:20;8.80;99.90
52513;DHT22;38422;53.172;6.974;2023-04-26T09:45:52;8.80;99.90
52513;DHT22;38422;53.172;6.974;2023-04-26T09:48:20;8.80;99.90
52513;DHT22;38422;53.172;6.974;2023-04-26T09:50:54;8.90;99.90
52513;DHT22;38422;53.172;6.974;2023-04-26T09:53:48;8.90;99.90
52513;DHT22;38422;53.172;6.974;2023-04-26T09:56:18;8.90;99.90
52513;DHT22;38422;53.172;6.974;2023-04-26T09:58:58;9.00;99.90
52513;DHT22;38422;53.172;6.974;2023-04-26T10:01:27;9.10;99.90
52513;DHT22;38422;53.172;6.974;2023-04-26T10:04:00;9.20;99.90
52513;DHT22;38422;53.172;6.974;2023-04-26T10:06:26;9.40;99.90
52513;DHT22;38422;53.172;6.974;2023-04-26T10:08:53;9.50;99.90
52513;DHT22;38422;53.172;6.974;2023-04-26T10:11:20;9.60;99.90
52513;DHT22;38422;53.172;6.974;2023-04-26T10:13:49;9.70;99.90
52513;DHT22;38422;53.172;6.974;2023-04-26T10:16:15;9.80;99.90
52513;DHT22;38422;53.172;6.974;2023-04-26T10:18:41;9.90;99.90
52513;DHT22;38422;53.172;6.974;2023-04-26T10:23:42;10.00;99.90
52513;DHT22;38422;53.172;6.974;2023-04-26T10:26:47;10.00;99.90
52513;DHT22;38422;53.172;6.974;2023-04-26T10:29:18;10.10;99.90
52513;DHT22;38422;53.172;6.974;2023-04-26T10:34:35;10.40;99.90
52513;DHT22;38422;53.172;6.974;2023-04-26T10:37:16;10.50;99.90
52513;DHT22;38422;53.172;6.974;2023-04-26T10:39:44;10.60;99.90
52513;DHT22;38422;53.172;6.974;2023-04-26T10:42:17;10.60;99.90
52513;DHT22;38422;53.172;6.974;2023-04-26T10:44:48;10.60;99.90
52513;DHT22;38422;53.172;6.974;2023-04-26T10:47:21;10.50;99.90
52513;DHT22;38422;53.172;6.974;2023-04-26T10:49:47;10.20;99.90
52513;DHT22;38422;53.172;6.974;2023-04-26T10:52:19;10.00;99.90
52513;DHT22;38422;53.172;6.974;2023-04-26T10:55:00;10.00;99.90
52513;DHT22;38422;53.172;6.974;2023-04-26T10:57:52;10.00;99.90
52513;DHT22;38422;53.172;6.974;2023-04-26T11:00:28;10.00;99.90
52513;DHT22;38422;53.172;6.974;2023-04-26T11:03:01;10.10;99.90
52513;DHT22;38422;53.172;6.974;2023-04-26T11:05:37;10.10;99.90
52513;DHT22;38422;53.172;6.974;2023-04-26T11:10:36;10.40;99.90
52513;DHT22;38422;53.172;6.974;2023-04-26T11:13:03;10.50;99.90
52513;DHT22;38422;53.172;6.974;2023-04-26T11:15:30;10.50;99.90
52513;DHT22;38422;53.172;6.974;2023-04-26T11:17:56;10.40;99.90
52513;DHT22;38422;53.172;6.974;2023-04-26T11:20:22;10.40;99.90
52513;DHT22;38422;53.172;6.974;2023-04-26T11:22:47;10.40;99.90
52513;DHT22;38422;53.172;6.974;2023-04-26T11:25:13;10.40;99.90
52513;DHT22;38422;53.172;6.974;2023-04-26T11:27:42;10.40;99.90
52513;DHT22;38422;53.172;6.974;2023-04-26T11:30:08;10.50;99.90
52513;DHT22;38422;53.172;6.974;2023-04-26T11:32:34;10.50;99.90
52513;DHT22;38422;53.172;6.974;2023-04-26T11:35:00;10.50;99.90
52513;DHT22;38422;53.172;6.974;2023-04-26T11:37:26;10.40;99.90
52513;DHT22;38422;53.172;6.974;2023-04-26T11:39:51;10.20;99.90
52513;DHT22;38422;53.172;6.974;2023-04-26T11:42:24;10.10;99.90
52513;DHT22;38422;53.172;6.974;2023-04-26T11:44:50;9.90;99.90
52513;DHT22;38422;53.172;6.974;2023-04-26T11:47:17;9.80;99.90
52513;DHT22;38422;53.172;6.974;2023-04-26T11:49:44;9.60;99.90
52513;DHT22;38422;53.172;6.974;2023-04-26T11:52:10;9.40;99.90
52513;DHT22;38422;53.172;6.974;2023-04-26T11:54:37;9.30;99.90
52513;DHT22;38422;53.172;6.974;2023-04-26T11:57:13;9.20;99.90
52513;DHT22;38422;53.172;6.974;2023-04-26T11:59:39;9.30;99.90
52513;DHT22;38422;53.172;6.974;2023-04-26T12:02:05;9.30;99.90
52513;DHT22;38422;53.172;6.974;2023-04-26T12:04:31;9.40;99.90
52513;DHT22;38422;53.172;6.974;2023-04-26T12:06:57;9.50;99.90
52513;DHT22;38422;53.172;6.974;2023-04-26T12:09:23;9.50;99.90
52513;DHT22;38422;53.172;6.974;2023-04-26T12:12:02;9.50;99.90
52513;DHT22;38422;53.172;6.974;2023-04-26T12:14:36;9.60;99.90
52513;DHT22;38422;53.172;6.974;2023-04-26T12:17:03;9.60;99.90
52513;DHT22;38422;53.172;6.974;2023-04-26T12:19:36;9.70;99.90
52513;DHT22;38422;53.172;6.974;2023-04-26T12:22:03;9.70;99.90
52513;DHT22;38422;53.172;6.974;2023-04-26T12:24:30;9.80;99.90
52513;DHT22;38422;53.172;6.974;2023-04-26T12:27:02;9.90;99.90
52513;DHT22;38422;53.172;6.974;2023-04-26T12:29:29;10.10;99.90
52513;DHT22;38422;53.172;6.974;2023-04-26T12:31:57;10.20;99.90
52513;DHT22;38422;53.172;6.974;2023-04-26T12:34:23;10.40;99.90
52513;DHT22;38422;53.172;6.974;2023-04-26T12:36:49;10.50;99.90
52513;DHT22;38422;53.172;6.974;2023-04-26T12:39:14;10.60;99.90
52513;DHT22;38422;53.172;6.974;2023-04-26T12:41:42;10.60;99.90
52513;DHT22;38422;53.172;6.974;2023-04-26T12:44:08;10.60;99.90
52513;DHT22;38422;53.172;6.974;2023-04-26T12:46:34;10.60;99.90
52513;DHT22;38422;53.172;6.974;2023-04-26T12:49:01;10.70;99.90
52513;DHT22;38422;53.172;6.974;2023-04-26T12:51:27;10.70;99.90
52513;DHT22;38422;53.172;6.974;2023-04-26T12:53:53;10.60;99.90
52513;DHT22;38422;53.172;6.974;2023-04-26T12:56:19;10.60;99.90
52513;DHT22;38422;53.172;6.974;2023-04-26T12:58:45;10.60;99.90
52513;DHT22;38422;53.172;6.974;2023-04-26T13:01:12;10.60;99.90
52513;DHT22;38422;53.172;6.974;2023-04-26T13:03:38;10.70;99.90
52513;DHT22;38422;53.172;6.974;2023-04-26T13:06:04;10.80;99.90
52513;DHT22;38422;53.172;6.974;2023-04-26T13:08:30;10.90;99.90
52513;DHT22;38422;53.172;6.974;2023-04-26T13:10:55;11.10;99.90
52513;DHT22;38422;53.172;6.974;2023-04-26T13:13:23;11.20;99.90
52513;DHT22;38422;53.172;6.974;2023-04-26T13:15:49;11.40;99.90
52513;DHT22;38422;53.172;6.974;2023-04-26T13:18:15;11.80;99.90
52513;DHT22;38422;53.172;6.974;2023-04-26T13:20:42;12.20;99.90
52513;DHT22;38422;53.172;6.974;2023-04-26T13:23:08;12.50;99.90
52513;DHT22;38422;53.172;6.974;2023-04-26T13:25:35;12.60;99.90
52513;DHT22;38422;53.172;6.974;2023-04-26T13:28:02;12.70;99.90
52513;DHT22;38422;53.172;6.974;2023-04-26T13:30:28;12.80;99.90
52513;DHT22;38422;53.172;6.974;2023-04-26T13:32:53;12.70;99.90
52513;DHT22;38422;53.172;6.974;2023-04-26T13:35:19;12.60;99.90
52513;DHT22;38422;53.172;6.974;2023-04-26T13:37:45;12.60;99.90
52513;DHT22;38422;53.172;6.974;2023-04-26T13:40:11;12.40;99.90
52513;DHT22;38422;53.172;6.974;2023-04-26T13:42:38;12.10;99.90
52513;DHT22;38422;53.172;6.974;2023-04-26T13:45:04;11.90;99.90
52513;DHT22;38422;53.172;6.974;2023-04-26T13:47:35;11.70;99.90
52513;DHT22;38422;53.172;6.974;2023-04-26T13:50:01;11.50;99.90
52513;DHT22;38422;53.172;6.974;2023-04-26T13:52:27;11.30;99.90
52513;DHT22;38422;53.172;6.974;2023-04-26T13:54:53;11.10;99.90
52513;DHT22;38422;53.172;6.974;2023-04-26T13:57:19;11.00;99.90
52513;DHT22;38422;53.172;6.974;2023-04-26T13:59:47;10.80;99.90
52513;DHT22;38422;53.172;6.974;2023-04-26T14:02:13;10.80;99.90
52513;DHT22;38422;53.172;6.974;2023-04-26T14:04:39;10.70;99.90
52513;DHT22;38422;53.172;6.974;2023-04-26T14:07:06;10.60;99.90
52513;DHT22;38422;53.172;6.974;2023-04-26T14:09:32;10.50;99.90
52513;DHT22;38422;53.172;6.974;2023-04-26T14:11:57;10.40;99.90
52513;DHT22;38422;53.172;6.974;2023-04-26T14:14:24;10.30;99.90
52513;DHT22;38422;53.172;6.974;2023-04-26T14:16:50;10.30;99.90
52513;DHT22;38422;53.172;6.974;2023-04-26T14:19:16;10.20;99.90
52513;DHT22;38422;53.172;6.974;2023-04-26T14:21:42;10.20;99.90
52513;DHT22;38422;53.172;6.974;2023-04-26T14:24:08;10.20;99.90
52513;DHT22;38422;53.172;6.974;2023-04-26T14:26:34;10.20;99.90
52513;DHT22;38422;53.172;6.974;2023-04-26T14:29:00;10.10;99.90
52513;DHT22;38422;53.172;6.974;2023-04-26T14:31:26;10.10;99.90
52513;DHT22;38422;53.172;6.974;2023-04-26T14:33:53;10.00;99.90
52513;DHT22;38422;53.172;6.974;2023-04-26T14:36:19;10.00;99.90
52513;DHT22;38422;53.172;6.974;2023-04-26T14:38:45;10.00;99.90
52513;DHT22;38422;53.172;6.974;2023-04-26T14:41:15;10.00;99.90
52513;DHT22;38422;53.172;6.974;2023-04-26T14:43:42;10.00;99.90
52513;DHT22;38422;53.172;6.974;2023-04-26T14:46:10;9.90;99.90
52513;DHT22;38422;53.172;6.974;2023-04-26T14:48:36;9.90;99.90
52513;DHT22;38422;53.172;6.974;2023-04-26T14:51:02;9.90;99.90
52513;DHT22;38422;53.172;6.974;2023-04-26T14:53:27;9.90;99.90
52513;DHT22;38422;53.172;6.974;2023-04-26T14:56:00;9.90;99.90
52513;DHT22;38422;53.172;6.974;2023-04-26T14:58:26;9.80;99.90
52513;DHT22;38422;53.172;6.974;2023-04-26T15:00:52;9.80;99.90
52513;DHT22;38422;53.172;6.974;2023-04-26T15:03:19;9.80;99.90
52513;DHT22;38422;53.172;6.974;2023-04-26T15:05:45;9.90;99.90
52513;DHT22;38422;53.172;6.974;2023-04-26T15:08:11;9.90;99.90
52513;DHT22;38422;53.172;6.974;2023-04-26T15:10:36;9.80;99.90
52513;DHT22;38422;53.172;6.974;2023-04-26T15:13:02;9.80;99.90
52513;DHT22;38422;53.172;6.974;2023-04-26T15:15:28;9.80;99.90
52513;DHT22;38422;53.172;6.974;2023-04-26T15:17:54;9.90;99.90
52513;DHT22;38422;53.172;6.974;2023-04-26T15:20:19;9.90;99.90
52513;DHT22;38422;53.172;6.974;2023-04-26T15:22:46;9.90;99.90
52513;DHT22;38422;53.172;6.974;2023-04-26T15:25:11;10.00;99.90
52513;DHT22;38422;53.172;6.974;2023-04-26T15:27:37;10.10;99.90
52513;DHT22;38422;53.172;6.974;2023-04-26T15:30:04;10.20;99.90
52513;DHT22;38422;53.172;6.974;2023-04-26T15:32:30;10.20;99.90
52513;DHT22;38422;53.172;6.974;2023-04-26T15:34:56;10.30;99.90
52513;DHT22;38422;53.172;6.974;2023-04-26T15:37:22;10.40;99.90
52513;DHT22;38422;53.172;6.974;2023-04-26T15:39:48;10.40;99.90
52513;DHT22;38422;53.172;6.974;2023-04-26T15:42:14;10.40;99.90
52513;DHT22;38422;53.172;6.974;2023-04-26T15:44:43;10.50;99.90
52513;DHT22;38422;53.172;6.974;2023-04-26T15:47:08;10.50;99.90
52513;DHT22;38422;53.172;6.974;2023-04-26T15:49:34;10.50;99.90
52513;DHT22;38422;53.172;6.974;2023-04-26T15:52:00;10.50;99.90
52513;DHT22;38422;53.172;6.974;2023-04-26T15:54:26;10.50;99.90
52513;DHT22;38422;53.172;6.974;2023-04-26T15:56:52;10.60;99.90